This is the latest recevied weather packets stored in our database for station/object 9M2SAR-10. If no packets are shown the sender has not sent any weather packets the latest 10 day(s).
| Time | Temp. | Humidity | Pressure | Rain* | Wind** | Luminosity | Snow |
|---|---|---|---|---|---|---|---|
| 1777837597 | 26.67° C | 100% | 1008.7 hPa | - | - | - | - |
| 1777836697 | 27.22° C | 100% | 1009 hPa | - | - | - | - |
| 1777833096 | 26.67° C | 100% | 1009.4 hPa | - | - | - | - |
| 1777832196 | 26.11° C | 100% | 1009.5 hPa | - | - | - | - |
| 1777826796 | 26.67° C | 100% | 1010.1 hPa | - | - | - | - |
| 1777825896 | 26.67° C | 100% | 1010 hPa | - | - | - | - |
| 1777824996 | 26.67° C | 100% | 1010.1 hPa | - | - | - | - |
| 1777824096 | 26.67° C | 100% | 1010.3 hPa | - | - | - | - |
| 1777822296 | 27.78° C | 100% | 1010.9 hPa | - | - | - | - |
| 1777816895 | 28.89° C | 100% | 1010.2 hPa | - | - | - | - |
| 1777815095 | 28.89° C | 100% | 1009.8 hPa | - | - | - | - |
| 1777814195 | 28.89° C | 100% | 1009.2 hPa | - | - | - | - |
| 1777813295 | 28.33° C | 100% | 1009.3 hPa | - | - | - | - |
| 1777812395 | 30° C | 100% | 1009 hPa | - | - | - | - |
| 1777806994 | 32.22° C | 100% | 1007.1 hPa | - | - | - | - |
| 1777806094 | 32.78° C | 100% | 1007.2 hPa | - | - | - | - |
| 1777804294 | 33.33° C | 100% | 1006.6 hPa | - | - | - | - |
| 1777803394 | 33.89° C | 100% | 1006.3 hPa | - | - | - | - |
| 1777802494 | 33.89° C | 100% | 1006.5 hPa | - | - | - | - |
| 1777801594 | 34.44° C | 100% | 1006.1 hPa | - | - | - | - |
| 1777800694 | 35° C | 100% | 1006.1 hPa | - | - | - | - |
| 1777797993 | 34.44° C | 100% | 1005.6 hPa | - | - | - | - |
| 1777797093 | 33.89° C | 100% | 1005.8 hPa | - | - | - | - |
| 1777796193 | 33.89° C | 100% | 1006 hPa | - | - | - | - |
| 1777795293 | 33.89° C | 100% | 1006.2 hPa | - | - | - | - |
* Rain since midnight (hover to see other rain measurements)
** Current wind speed in m/s (hover to see current wind gust speed)